LNKFK ENBR-ENHD
Flight info
| Callsign | LNKFK |
|---|---|
| Flight time | 0h 24m |
| Altitude | 2000 |
| Route | ENBR HAGANES KLEPPE HORGEFJORD SELBJORN HISKJO RYVARDEN HAUGESUND ROKSUND ENHD |
| Aircraft | DA42/L-V/N |
Departure
| Time | 2026-04-25 21:30 |
|---|---|
| Airport | Bergen Airport, Flesland (ENBR) |
Arrival
| Time | 2026-04-25 21:55 |
|---|---|
| Airport | Haugesund Airport, Karmøy (ENHD) |
| Time | Latitude | Longitude | Altitude | Speed | Heading |
|---|---|---|---|---|---|
| 2026-04-25 21:22 | 60.29645 | 5.22264 | 143 ft | 0 kts | 260° |
| 2026-04-25 21:22 | 60.29687 | 5.22249 | 142 ft | 0 kts | 28° |
| 2026-04-25 21:22 | 60.29682 | 5.22252 | 142 ft | 0 kts | 260° |
| 2026-04-25 21:26 | 60.29679 | 5.22197 | 142 ft | 0 kts | 263° |
| 2026-04-25 21:27 | 60.29698 | 5.22137 | 142 ft | 6 kts | 339° |
| 2026-04-25 21:27 | 60.29731 | 5.22071 | 142 ft | 0 kts | 251° |
| 2026-04-25 21:27 | 60.29729 | 5.22053 | 142 ft | 8 kts | 253° |
| 2026-04-25 21:27 | 60.29618 | 5.22046 | 143 ft | 26 kts | 171° |
| 2026-04-25 21:28 | 60.29421 | 5.22111 | 152 ft | 25 kts | 173° |
| 2026-04-25 21:28 | 60.29273 | 5.22163 | 157 ft | 23 kts | 172° |
| 2026-04-25 21:28 | 60.29092 | 5.22221 | 157 ft | 26 kts | 171° |
| 2026-04-25 21:28 | 60.28974 | 5.22261 | 156 ft | 14 kts | 171° |
| 2026-04-25 21:29 | 60.28920 | 5.22184 | 154 ft | 8 kts | 262° |
| 2026-04-25 21:29 | 60.28911 | 5.22065 | 154 ft | 14 kts | 266° |
| 2026-04-25 21:29 | 60.28911 | 5.21958 | 157 ft | 4 kts | 352° |
| 2026-04-25 21:29 | 60.28912 | 5.21958 | 157 ft | 1 kts | 351° |
| 2026-04-25 21:30 | 60.29116 | 5.21893 | 157 ft | 58 kts | 351° |
| 2026-04-25 21:30 | 60.29610 | 5.21707 | 312 ft | 77 kts | 346° |
| 2026-04-25 21:30 | 60.30140 | 5.21399 | 599 ft | 82 kts | 340° |
| 2026-04-25 21:30 | 60.30502 | 5.21144 | 784 ft | 87 kts | 341° |
| 2026-04-25 21:31 | 60.31312 | 5.20094 | 796 ft | 124 kts | 304° |
| 2026-04-25 21:31 | 60.31400 | 5.18251 | 797 ft | 146 kts | 258° |
| 2026-04-25 21:31 | 60.30732 | 5.16621 | 799 ft | 162 kts | 212° |
| 2026-04-25 21:31 | 60.29600 | 5.16151 | 801 ft | 171 kts | 186° |
| 2026-04-25 21:32 | 60.28398 | 5.15988 | 791 ft | 174 kts | 182° |
| 2026-04-25 21:32 | 60.27179 | 5.16029 | 791 ft | 176 kts | 180° |
| 2026-04-25 21:32 | 60.25952 | 5.16101 | 793 ft | 177 kts | 180° |
| 2026-04-25 21:32 | 60.24720 | 5.16194 | 791 ft | 177 kts | 180° |
| 2026-04-25 21:33 | 60.23492 | 5.16304 | 790 ft | 176 kts | 179° |
| 2026-04-25 21:33 | 60.22266 | 5.16393 | 791 ft | 176 kts | 179° |
| 2026-04-25 21:33 | 60.21035 | 5.16484 | 793 ft | 177 kts | 179° |
| 2026-04-25 21:33 | 60.19795 | 5.16573 | 791 ft | 179 kts | 179° |
| 2026-04-25 21:34 | 60.18552 | 5.16652 | 795 ft | 179 kts | 180° |
| 2026-04-25 21:34 | 60.17304 | 5.16744 | 793 ft | 180 kts | 179° |
| 2026-04-25 21:34 | 60.16050 | 5.16830 | 796 ft | 181 kts | 179° |
| 2026-04-25 21:34 | 60.14792 | 5.16894 | 791 ft | 180 kts | 180° |
| 2026-04-25 21:35 | 60.13557 | 5.16964 | 788 ft | 180 kts | 179° |
| 2026-04-25 21:35 | 60.12302 | 5.17061 | 793 ft | 181 kts | 179° |
| 2026-04-25 21:35 | 60.11049 | 5.17160 | 790 ft | 179 kts | 180° |
| 2026-04-25 21:35 | 60.09809 | 5.17296 | 784 ft | 177 kts | 179° |
| 2026-04-25 21:36 | 60.08581 | 5.17417 | 790 ft | 177 kts | 179° |
| 2026-04-25 21:36 | 60.07343 | 5.17533 | 790 ft | 179 kts | 179° |
| 2026-04-25 21:36 | 60.06097 | 5.17631 | 790 ft | 180 kts | 179° |
| 2026-04-25 21:36 | 60.04844 | 5.17722 | 796 ft | 181 kts | 179° |
| 2026-04-25 21:37 | 60.03588 | 5.17813 | 790 ft | 181 kts | 179° |
| 2026-04-25 21:37 | 60.02740 | 5.17875 | 790 ft | 181 kts | 179° |
| 2026-04-25 21:37 | 60.01079 | 5.17990 | 790 ft | 180 kts | 179° |
| 2026-04-25 21:37 | 59.99823 | 5.18076 | 792 ft | 181 kts | 179° |
| 2026-04-25 21:38 | 59.98557 | 5.18169 | 782 ft | 181 kts | 179° |
| 2026-04-25 21:38 | 59.97301 | 5.18239 | 789 ft | 179 kts | 179° |
| 2026-04-25 21:38 | 59.96054 | 5.18310 | 795 ft | 180 kts | 180° |
| 2026-04-25 21:38 | 59.94800 | 5.18400 | 794 ft | 181 kts | 179° |
| 2026-04-25 21:39 | 59.93543 | 5.18493 | 787 ft | 181 kts | 179° |
| 2026-04-25 21:39 | 59.92289 | 5.18574 | 793 ft | 180 kts | 179° |
| 2026-04-25 21:39 | 59.91041 | 5.18632 | 796 ft | 180 kts | 179° |
| 2026-04-25 21:39 | 59.89780 | 5.18689 | 785 ft | 183 kts | 180° |
| 2026-04-25 21:40 | 59.88541 | 5.18754 | 1047 ft | 171 kts | 179° |
| 2026-04-25 21:40 | 59.87396 | 5.18822 | 1393 ft | 159 kts | 179° |
| 2026-04-25 21:40 | 59.86311 | 5.18890 | 1741 ft | 153 kts | 179° |
| 2026-04-25 21:40 | 59.85270 | 5.18963 | 2081 ft | 148 kts | 180° |
| 2026-04-25 21:41 | 59.84263 | 5.19038 | 2416 ft | 142 kts | 179° |
| 2026-04-25 21:41 | 59.83296 | 5.19106 | 2759 ft | 136 kts | 179° |
| 2026-04-25 21:41 | 59.82352 | 5.19163 | 2982 ft | 145 kts | 179° |
| 2026-04-25 21:41 | 59.81254 | 5.19213 | 2992 ft | 165 kts | 179° |
| 2026-04-25 21:42 | 59.80083 | 5.19268 | 2994 ft | 176 kts | 179° |
| 2026-04-25 21:42 | 59.78837 | 5.19317 | 2997 ft | 182 kts | 179° |
| 2026-04-25 21:42 | 59.77554 | 5.19360 | 2983 ft | 185 kts | 179° |
| 2026-04-25 21:42 | 59.76265 | 5.19399 | 2989 ft | 186 kts | 179° |
| 2026-04-25 21:43 | 59.74971 | 5.19442 | 2987 ft | 186 kts | 179° |
| 2026-04-25 21:43 | 59.73675 | 5.19496 | 2986 ft | 187 kts | 179° |
| 2026-04-25 21:43 | 59.72364 | 5.19544 | 2991 ft | 190 kts | 179° |
| 2026-04-25 21:43 | 59.71042 | 5.19590 | 2988 ft | 190 kts | 179° |
| 2026-04-25 21:44 | 59.69725 | 5.19630 | 2990 ft | 189 kts | 180° |
| 2026-04-25 21:44 | 59.68408 | 5.19663 | 2990 ft | 188 kts | 179° |
| 2026-04-25 21:44 | 59.65785 | 5.19731 | 2992 ft | 189 kts | 180° |
| 2026-04-25 21:45 | 59.64470 | 5.19775 | 2993 ft | 189 kts | 180° |
| 2026-04-25 21:45 | 59.64024 | 5.19789 | 2995 ft | 190 kts | 179° |
| 2026-04-25 21:45 | 59.61765 | 5.19876 | 2653 ft | 205 kts | 179° |
| 2026-04-25 21:45 | 59.60305 | 5.19933 | 2170 ft | 214 kts | 180° |
| 2026-04-25 21:46 | 59.58811 | 5.20020 | 1554 ft | 214 kts | 178° |
| 2026-04-25 21:46 | 59.57346 | 5.20132 | 1298 ft | 203 kts | 179° |
| 2026-04-25 21:46 | 59.55965 | 5.20229 | 1291 ft | 195 kts | 179° |
| 2026-04-25 21:46 | 59.54626 | 5.20319 | 1290 ft | 190 kts | 179° |
| 2026-04-25 21:47 | 59.53314 | 5.20405 | 1291 ft | 187 kts | 179° |
| 2026-04-25 21:47 | 59.52019 | 5.20497 | 1292 ft | 186 kts | 179° |
| 2026-04-25 21:47 | 59.50729 | 5.20601 | 1293 ft | 186 kts | 179° |
| 2026-04-25 21:47 | 59.49443 | 5.20916 | 1297 ft | 187 kts | 171° |
| 2026-04-25 21:48 | 59.48169 | 5.21387 | 1292 ft | 186 kts | 169° |
| 2026-04-25 21:48 | 59.46898 | 5.21857 | 1298 ft | 185 kts | 169° |
| 2026-04-25 21:48 | 59.45641 | 5.22323 | 1286 ft | 180 kts | 169° |
| 2026-04-25 21:48 | 59.44431 | 5.22773 | 1285 ft | 174 kts | 169° |
| 2026-04-25 21:49 | 59.43252 | 5.23214 | 1285 ft | 171 kts | 169° |
| 2026-04-25 21:49 | 59.42396 | 5.23538 | 1283 ft | 171 kts | 169° |
| 2026-04-25 21:49 | 59.41233 | 5.23986 | 1284 ft | 170 kts | 169° |
| 2026-04-25 21:49 | 59.40071 | 5.24432 | 1282 ft | 170 kts | 169° |
| 2026-04-25 21:50 | 59.38924 | 5.24873 | 1286 ft | 164 kts | 169° |
| 2026-04-25 21:50 | 59.37812 | 5.25293 | 1189 ft | 162 kts | 169° |
| 2026-04-25 21:50 | 59.36715 | 5.25710 | 1107 ft | 156 kts | 171° |
| 2026-04-25 21:50 | 59.36008 | 5.25785 | 1071 ft | 144 kts | 186° |
| 2026-04-25 21:51 | 59.34801 | 5.25307 | 790 ft | 121 kts | 195° |
| 2026-04-25 21:51 | 59.33975 | 5.25051 | 564 ft | 115 kts | 198° |
| 2026-04-25 21:51 | 59.33413 | 5.24280 | 464 ft | 89 kts | 261° |
| 2026-04-25 21:51 | 59.33457 | 5.23168 | 238 ft | 78 kts | 302° |
| 2026-04-25 21:52 | 59.33651 | 5.22600 | 144 ft | 73 kts | 318° |
| 2026-04-25 21:52 | 59.33970 | 5.21947 | 85 ft | 51 kts | 322° |
| 2026-04-25 21:52 | 59.34188 | 5.21514 | 82 ft | 60 kts | 315° |
| 2026-04-25 21:52 | 59.34535 | 5.20776 | 182 ft | 78 kts | 316° |
| 2026-04-25 21:53 | 59.34670 | 5.19731 | 515 ft | 98 kts | 262° |
| 2026-04-25 21:53 | 59.34182 | 5.18587 | 735 ft | 128 kts | 220° |
| 2026-04-25 21:53 | 59.33276 | 5.18584 | 938 ft | 139 kts | 154° |
| 2026-04-25 21:53 | 59.32448 | 5.19577 | 871 ft | 141 kts | 136° |
| 2026-04-25 21:54 | 59.31888 | 5.20854 | 766 ft | 113 kts | 95° |
| 2026-04-25 21:54 | 59.32093 | 5.22022 | 603 ft | 83 kts | 33° |
| 2026-04-25 21:54 | 59.32498 | 5.22785 | 483 ft | 77 kts | 24° |
| 2026-04-25 21:54 | 59.32973 | 5.23101 | 352 ft | 71 kts | 354° |
| 2026-04-25 21:55 | 59.33452 | 5.22925 | 232 ft | 69 kts | 330° |
| 2026-04-25 21:55 | 59.33786 | 5.22316 | 106 ft | 61 kts | 321° |
| 2026-04-25 21:55 | 59.34033 | 5.21838 | 81 ft | 36 kts | 315° |
| 2026-04-25 21:55 | 59.34289 | 5.21319 | 80 ft | 72 kts | 313° |
| 2026-04-25 21:56 | 59.34658 | 5.20531 | 261 ft | 81 kts | 316° |
| 2026-04-25 21:56 | 59.34821 | 5.19865 | 516 ft | 87 kts | 288° |
| 2026-04-25 21:56 | 59.34297 | 5.18407 | 944 ft | 120 kts | 210° |
| 2026-04-25 21:56 | 59.33380 | 5.18376 | 969 ft | 151 kts | 154° |
| 2026-04-25 21:57 | 59.32531 | 5.19560 | 1044 ft | 148 kts | 135° |
| 2026-04-25 21:57 | 59.31802 | 5.20898 | 924 ft | 139 kts | 128° |
| 2026-04-25 21:57 | 59.31459 | 5.22373 | 847 ft | 109 kts | 72° |
| 2026-04-25 21:57 | 59.31803 | 5.23367 | 748 ft | 73 kts | 23° |
| 2026-04-25 21:58 | 59.32241 | 5.23718 | 569 ft | 65 kts | 5° |
| 2026-04-25 21:58 | 59.32668 | 5.23767 | 406 ft | 62 kts | 352° |
| 2026-04-25 21:58 | 59.33095 | 5.23514 | 325 ft | 66 kts | 339° |
| 2026-04-25 21:58 | 59.33471 | 5.22956 | 206 ft | 68 kts | 321° |
| 2026-04-25 21:59 | 59.33777 | 5.22339 | 113 ft | 61 kts | 321° |
| 2026-04-25 21:59 | 59.34021 | 5.21863 | 81 ft | 34 kts | 313° |
| 2026-04-25 21:59 | 59.34235 | 5.21417 | 82 ft | 65 kts | 317° |
| 2026-04-25 22:00 | 59.34800 | 5.19689 | 582 ft | 90 kts | 285° |
| 2026-04-25 22:00 | 59.34488 | 5.18437 | 821 ft | 116 kts | 230° |
| 2026-04-25 22:00 | 59.33663 | 5.17789 | 908 ft | 147 kts | 182° |
| 2026-04-25 22:00 | 59.32742 | 5.18569 | 953 ft | 147 kts | 136° |
| 2026-04-25 22:01 | 59.32034 | 5.19979 | 963 ft | 137 kts | 118° |
| 2026-04-25 22:01 | 59.31725 | 5.21616 | 816 ft | 118 kts | 80° |
| 2026-04-25 22:01 | 59.31956 | 5.22767 | 708 ft | 79 kts | 36° |
| 2026-04-25 22:01 | 59.32229 | 5.23184 | 611 ft | 70 kts | 20° |
| 2026-04-25 22:02 | 59.32848 | 5.23489 | 497 ft | 71 kts | 349° |
| 2026-04-25 22:02 | 59.33322 | 5.23144 | 292 ft | 77 kts | 338° |
| 2026-04-25 22:02 | 59.33714 | 5.22459 | 118 ft | 71 kts | 320° |
| 2026-04-25 22:02 | 59.34012 | 5.21878 | 81 ft | 44 kts | 316° |
| 2026-04-25 22:03 | 59.34261 | 5.21377 | 84 ft | 70 kts | 316° |
| 2026-04-25 22:03 | 59.34608 | 5.20594 | 252 ft | 82 kts | 316° |
| 2026-04-25 22:03 | 59.34840 | 5.19555 | 542 ft | 91 kts | 281° |
| 2026-04-25 22:03 | 59.34628 | 5.18256 | 720 ft | 120 kts | 237° |
| 2026-04-25 22:04 | 59.33765 | 5.17497 | 712 ft | 153 kts | 179° |
| 2026-04-25 22:04 | 59.32811 | 5.18283 | 901 ft | 153 kts | 138° |
| 2026-04-25 22:04 | 59.32059 | 5.19720 | 985 ft | 145 kts | 125° |
| 2026-04-25 22:04 | 59.31462 | 5.21237 | 882 ft | 138 kts | 117° |
| 2026-04-25 22:05 | 59.30965 | 5.22785 | 837 ft | 130 kts | 112° |
| 2026-04-25 22:05 | 59.30614 | 5.24307 | 880 ft | 108 kts | 80° |
| 2026-04-25 22:05 | 59.30927 | 5.25414 | 790 ft | 95 kts | 33° |
| 2026-04-25 22:05 | 59.31440 | 5.26234 | 703 ft | 95 kts | 27° |
| 2026-04-25 22:06 | 59.32000 | 5.26897 | 626 ft | 94 kts | 21° |
| 2026-04-25 22:06 | 59.32590 | 5.27479 | 498 ft | 92 kts | 17° |
| 2026-04-25 22:06 | 59.33136 | 5.28061 | 553 ft | 93 kts | 39° |
| 2026-04-25 22:06 | 59.33247 | 5.29413 | 563 ft | 115 kts | 99° |
| 2026-04-25 22:07 | 59.32708 | 5.30649 | 567 ft | 129 kts | 149° |
| 2026-04-25 22:07 | 59.32135 | 5.30926 | 587 ft | 129 kts | 182° |
| 2026-04-25 22:07 | 59.31226 | 5.29798 | 613 ft | 114 kts | 255° |
| 2026-04-25 22:07 | 59.31147 | 5.28342 | 609 ft | 105 kts | 285° |
| 2026-04-25 22:08 | 59.31384 | 5.27082 | 664 ft | 93 kts | 314° |
| 2026-04-25 22:08 | 59.31846 | 5.26186 | 598 ft | 95 kts | 322° |
| 2026-04-25 22:08 | 59.32308 | 5.25248 | 544 ft | 97 kts | 321° |
| 2026-04-25 22:08 | 59.32779 | 5.24293 | 462 ft | 98 kts | 320° |
| 2026-04-25 22:09 | 59.33263 | 5.23377 | 320 ft | 98 kts | 319° |
| 2026-04-25 22:09 | 59.33713 | 5.22460 | 136 ft | 82 kts | 321° |
| 2026-04-25 22:09 | 59.34035 | 5.21826 | 81 ft | 46 kts | 320° |
| 2026-04-25 22:09 | 59.34281 | 5.21324 | 80 ft | 71 kts | 311° |
| 2026-04-25 22:10 | 59.34666 | 5.20534 | 205 ft | 83 kts | 319° |
| 2026-04-25 22:10 | 59.35043 | 5.19637 | 374 ft | 85 kts | 320° |
| 2026-04-25 22:10 | 59.35571 | 5.19266 | 567 ft | 84 kts | 0° |
| 2026-04-25 22:10 | 59.36131 | 5.19742 | 675 ft | 96 kts | 24° |
| 2026-04-25 22:11 | 59.36715 | 5.20432 | 766 ft | 99 kts | 22° |
| 2026-04-25 22:11 | 59.37305 | 5.21119 | 905 ft | 98 kts | 24° |
| 2026-04-25 22:11 | 59.37897 | 5.21805 | 1056 ft | 99 kts | 24° |
| 2026-04-25 22:11 | 59.38480 | 5.22510 | 1221 ft | 98 kts | 25° |